sensor_id;sensor_type;location;lat;lon;timestamp;P1;durP1;ratioP1;P2;durP2;ratioP2
40967;SDS011;57377;45.130;6.038;2022-08-21T00:01:42;1.83;;;1.05;;
40967;SDS011;57377;45.130;6.038;2022-08-21T00:04:08;1.85;;;0.88;;
40967;SDS011;57377;45.130;6.038;2022-08-21T00:06:35;1.20;;;0.73;;
40967;SDS011;57377;45.130;6.038;2022-08-21T00:09:02;1.52;;;0.90;;
40967;SDS011;57377;45.130;6.038;2022-08-21T00:11:30;2.72;;;1.00;;
40967;SDS011;57377;45.130;6.038;2022-08-21T00:13:55;2.17;;;0.85;;
40967;SDS011;57377;45.130;6.038;2022-08-21T00:16:20;1.48;;;0.93;;
40967;SDS011;57377;45.130;6.038;2022-08-21T00:18:46;2.45;;;1.00;;
40967;SDS011;57377;45.130;6.038;2022-08-21T00:21:12;4.15;;;1.13;;
40967;SDS011;57377;45.130;6.038;2022-08-21T00:23:39;0.90;;;0.77;;
40967;SDS011;57377;45.130;6.038;2022-08-21T00:26:04;3.70;;;0.98;;
40967;SDS011;57377;45.130;6.038;2022-08-21T00:28:30;1.73;;;0.90;;
40967;SDS011;57377;45.130;6.038;2022-08-21T00:30:56;4.05;;;0.75;;
40967;SDS011;57377;45.130;6.038;2022-08-21T00:33:21;1.63;;;1.05;;
40967;SDS011;57377;45.130;6.038;2022-08-21T00:35:47;1.48;;;0.90;;
40967;SDS011;57377;45.130;6.038;2022-08-21T00:38:13;5.82;;;0.82;;
40967;SDS011;57377;45.130;6.038;2022-08-21T00:40:47;3.00;;;0.90;;
40967;SDS011;57377;45.130;6.038;2022-08-21T00:43:23;0.82;;;0.70;;
40967;SDS011;57377;45.130;6.038;2022-08-21T00:45:50;3.50;;;1.00;;
40967;SDS011;57377;45.130;6.038;2022-08-21T00:48:16;1.80;;;0.90;;
40967;SDS011;57377;45.130;6.038;2022-08-21T00:50:44;1.70;;;0.73;;
40967;SDS011;57377;45.130;6.038;2022-08-21T00:53:15;2.50;;;0.82;;
40967;SDS011;57377;45.130;6.038;2022-08-21T00:55:41;2.20;;;0.90;;
40967;SDS011;57377;45.130;6.038;2022-08-21T00:58:07;1.58;;;0.95;;
40967;SDS011;57377;45.130;6.038;2022-08-21T01:00:37;1.45;;;0.80;;
40967;SDS011;57377;45.130;6.038;2022-08-21T01:03:06;5.07;;;0.90;;
40967;SDS011;57377;45.130;6.038;2022-08-21T01:05:35;1.40;;;0.90;;
40967;SDS011;57377;45.130;6.038;2022-08-21T01:08:01;0.80;;;0.70;;
40967;SDS011;57377;45.130;6.038;2022-08-21T01:10:27;1.10;;;0.77;;
40967;SDS011;57377;45.130;6.038;2022-08-21T01:12:53;2.00;;;1.00;;
40967;SDS011;57377;45.130;6.038;2022-08-21T01:15:20;1.75;;;0.98;;
40967;SDS011;57377;45.130;6.038;2022-08-21T01:17:48;3.53;;;0.80;;
40967;SDS011;57377;45.130;6.038;2022-08-21T01:20:14;2.75;;;0.90;;
40967;SDS011;57377;45.130;6.038;2022-08-21T01:22:41;7.55;;;0.93;;
40967;SDS011;57377;45.130;6.038;2022-08-21T01:25:07;1.45;;;0.95;;
40967;SDS011;57377;45.130;6.038;2022-08-21T01:27:33;1.02;;;0.90;;
40967;SDS011;57377;45.130;6.038;2022-08-21T01:30:16;3.38;;;0.73;;
40967;SDS011;57377;45.130;6.038;2022-08-21T01:32:44;4.85;;;0.70;;
40967;SDS011;57377;45.130;6.038;2022-08-21T01:35:11;2.88;;;0.95;;
40967;SDS011;57377;45.130;6.038;2022-08-21T01:37:39;1.20;;;0.85;;
40967;SDS011;57377;45.130;6.038;2022-08-21T01:40:06;1.17;;;0.90;;
40967;SDS011;57377;45.130;6.038;2022-08-21T01:42:32;0.70;;;0.57;;
40967;SDS011;57377;45.130;6.038;2022-08-21T01:44:58;1.60;;;1.02;;
40967;SDS011;57377;45.130;6.038;2022-08-21T01:47:23;4.57;;;1.13;;
40967;SDS011;57377;45.130;6.038;2022-08-21T01:49:49;2.70;;;0.80;;
40967;SDS011;57377;45.130;6.038;2022-08-21T01:52:14;5.07;;;0.93;;
40967;SDS011;57377;45.130;6.038;2022-08-21T01:54:40;2.08;;;0.90;;
40967;SDS011;57377;45.130;6.038;2022-08-21T01:57:05;2.00;;;1.30;;
40967;SDS011;57377;45.130;6.038;2022-08-21T01:59:31;1.40;;;0.82;;
40967;SDS011;57377;45.130;6.038;2022-08-21T02:01:57;1.63;;;1.00;;
40967;SDS011;57377;45.130;6.038;2022-08-21T02:04:23;2.40;;;1.10;;
40967;SDS011;57377;45.130;6.038;2022-08-21T02:06:49;4.85;;;1.00;;
40967;SDS011;57377;45.130;6.038;2022-08-21T02:09:14;5.32;;;0.90;;
40967;SDS011;57377;45.130;6.038;2022-08-21T02:11:41;1.92;;;0.95;;
40967;SDS011;57377;45.130;6.038;2022-08-21T02:14:08;4.97;;;1.27;;
40967;SDS011;57377;45.130;6.038;2022-08-21T02:16:34;2.05;;;0.73;;
40967;SDS011;57377;45.130;6.038;2022-08-21T02:18:59;1.65;;;1.10;;
40967;SDS011;57377;45.130;6.038;2022-08-21T02:21:25;4.50;;;1.30;;
40967;SDS011;57377;45.130;6.038;2022-08-21T02:23:50;1.10;;;0.70;;
40967;SDS011;57377;45.130;6.038;2022-08-21T02:26:16;1.23;;;0.90;;
40967;SDS011;57377;45.130;6.038;2022-08-21T02:28:41;2.30;;;0.75;;
40967;SDS011;57377;45.130;6.038;2022-08-21T02:31:07;1.40;;;1.10;;
40967;SDS011;57377;45.130;6.038;2022-08-21T02:33:33;4.90;;;0.93;;
40967;SDS011;57377;45.130;6.038;2022-08-21T02:35:59;2.15;;;0.93;;
40967;SDS011;57377;45.130;6.038;2022-08-21T02:38:26;2.58;;;0.73;;
40967;SDS011;57377;45.130;6.038;2022-08-21T02:40:54;3.20;;;0.80;;
40967;SDS011;57377;45.130;6.038;2022-08-21T02:43:21;2.28;;;1.05;;
40967;SDS011;57377;45.130;6.038;2022-08-21T02:45:49;1.70;;;1.00;;
40967;SDS011;57377;45.130;6.038;2022-08-21T02:48:19;6.75;;;0.93;;
40967;SDS011;57377;45.130;6.038;2022-08-21T02:50:48;4.45;;;1.00;;
40967;SDS011;57377;45.130;6.038;2022-08-21T02:53:24;3.97;;;0.87;;
40967;SDS011;57377;45.130;6.038;2022-08-21T02:55:50;1.60;;;0.90;;
40967;SDS011;57377;45.130;6.038;2022-08-21T02:58:18;5.65;;;0.80;;
40967;SDS011;57377;45.130;6.038;2022-08-21T03:00:46;3.25;;;0.80;;
40967;SDS011;57377;45.130;6.038;2022-08-21T03:03:12;1.17;;;0.82;;
40967;SDS011;57377;45.130;6.038;2022-08-21T03:05:39;3.85;;;1.02;;
40967;SDS011;57377;45.130;6.038;2022-08-21T03:08:06;4.15;;;1.20;;
40967;SDS011;57377;45.130;6.038;2022-08-21T03:10:50;2.83;;;0.95;;
40967;SDS011;57377;45.130;6.038;2022-08-21T03:13:18;1.58;;;1.10;;
40967;SDS011;57377;45.130;6.038;2022-08-21T03:15:46;1.25;;;0.95;;
40967;SDS011;57377;45.130;6.038;2022-08-21T03:18:12;2.55;;;1.38;;
40967;SDS011;57377;45.130;6.038;2022-08-21T03:20:39;0.98;;;0.80;;
40967;SDS011;57377;45.130;6.038;2022-08-21T03:23:06;1.40;;;1.08;;
40967;SDS011;57377;45.130;6.038;2022-08-21T03:25:33;1.70;;;1.00;;
40967;SDS011;57377;45.130;6.038;2022-08-21T03:27:59;1.53;;;1.03;;
40967;SDS011;57377;45.130;6.038;2022-08-21T03:30:25;4.15;;;1.10;;
40967;SDS011;57377;45.130;6.038;2022-08-21T03:32:51;6.53;;;0.90;;
40967;SDS011;57377;45.130;6.038;2022-08-21T03:35:17;2.28;;;1.70;;
40967;SDS011;57377;45.130;6.038;2022-08-21T03:37:43;4.63;;;1.17;;
40967;SDS011;57377;45.130;6.038;2022-08-21T03:40:10;2.30;;;1.20;;
40967;SDS011;57377;45.130;6.038;2022-08-21T03:42:37;8.60;;;1.20;;
40967;SDS011;57377;45.130;6.038;2022-08-21T03:45:04;4.45;;;1.00;;
40967;SDS011;57377;45.130;6.038;2022-08-21T03:47:30;2.38;;;1.20;;
40967;SDS011;57377;45.130;6.038;2022-08-21T03:49:56;5.28;;;1.08;;
40967;SDS011;57377;45.130;6.038;2022-08-21T03:52:21;2.65;;;0.85;;
40967;SDS011;57377;45.130;6.038;2022-08-21T03:54:46;1.73;;;1.02;;
40967;SDS011;57377;45.130;6.038;2022-08-21T03:57:12;2.65;;;1.15;;
40967;SDS011;57377;45.130;6.038;2022-08-21T03:59:38;1.00;;;0.90;;
40967;SDS011;57377;45.130;6.038;2022-08-21T04:02:05;1.50;;;0.93;;
40967;SDS011;57377;45.130;6.038;2022-08-21T04:04:32;2.60;;;1.17;;
40967;SDS011;57377;45.130;6.038;2022-08-21T04:06:58;1.90;;;1.03;;
40967;SDS011;57377;45.130;6.038;2022-08-21T04:09:24;1.40;;;1.17;;
40967;SDS011;57377;45.130;6.038;2022-08-21T04:11:51;5.53;;;1.57;;
40967;SDS011;57377;45.130;6.038;2022-08-21T04:14:17;0.98;;;0.88;;
40967;SDS011;57377;45.130;6.038;2022-08-21T04:16:43;1.60;;;1.05;;
40967;SDS011;57377;45.130;6.038;2022-08-21T04:19:10;2.35;;;1.30;;
40967;SDS011;57377;45.130;6.038;2022-08-21T04:21:37;2.50;;;1.30;;
40967;SDS011;57377;45.130;6.038;2022-08-21T04:24:03;1.90;;;0.95;;
40967;SDS011;57377;45.130;6.038;2022-08-21T04:26:29;1.65;;;1.25;;
40967;SDS011;57377;45.130;6.038;2022-08-21T04:28:56;1.73;;;0.95;;
40967;SDS011;57377;45.130;6.038;2022-08-21T04:31:22;12.02;;;1.27;;
40967;SDS011;57377;45.130;6.038;2022-08-21T04:33:48;4.20;;;1.10;;
40967;SDS011;57377;45.130;6.038;2022-08-21T04:36:14;2.38;;;1.35;;
40967;SDS011;57377;45.130;6.038;2022-08-21T04:38:39;3.00;;;1.15;;
40967;SDS011;57377;45.130;6.038;2022-08-21T04:41:04;6.10;;;1.50;;
40967;SDS011;57377;45.130;6.038;2022-08-21T04:43:31;2.92;;;1.25;;
40967;SDS011;57377;45.130;6.038;2022-08-21T04:45:57;4.45;;;1.27;;
40967;SDS011;57377;45.130;6.038;2022-08-21T04:48:23;3.38;;;1.50;;
40967;SDS011;57377;45.130;6.038;2022-08-21T04:50:52;4.28;;;1.63;;
40967;SDS011;57377;45.130;6.038;2022-08-21T04:56:10;2.67;;;1.48;;
40967;SDS011;57377;45.130;6.038;2022-08-21T04:58:40;1.80;;;1.25;;
40967;SDS011;57377;45.130;6.038;2022-08-21T05:01:09;2.00;;;1.17;;
40967;SDS011;57377;45.130;6.038;2022-08-21T05:03:38;1.70;;;1.42;;
40967;SDS011;57377;45.130;6.038;2022-08-21T05:06:05;1.00;;;0.90;;
40967;SDS011;57377;45.130;6.038;2022-08-21T05:08:33;2.83;;;1.33;;
40967;SDS011;57377;45.130;6.038;2022-08-21T05:10:59;2.35;;;1.30;;
40967;SDS011;57377;45.130;6.038;2022-08-21T05:13:24;3.40;;;1.40;;
40967;SDS011;57377;45.130;6.038;2022-08-21T05:15:50;3.53;;;1.30;;
40967;SDS011;57377;45.130;6.038;2022-08-21T05:18:15;16.60;;;1.30;;
40967;SDS011;57377;45.130;6.038;2022-08-21T05:20:41;2.92;;;1.38;;
40967;SDS011;57377;45.130;6.038;2022-08-21T05:23:08;1.92;;;1.20;;
40967;SDS011;57377;45.130;6.038;2022-08-21T05:25:35;2.22;;;1.30;;
40967;SDS011;57377;45.130;6.038;2022-08-21T05:28:00;1.60;;;0.80;;
40967;SDS011;57377;45.130;6.038;2022-08-21T05:30:26;2.47;;;1.40;;
40967;SDS011;57377;45.130;6.038;2022-08-21T05:32:58;2.60;;;1.38;;
40967;SDS011;57377;45.130;6.038;2022-08-21T05:35:24;2.30;;;1.30;;
40967;SDS011;57377;45.130;6.038;2022-08-21T05:37:50;5.18;;;1.10;;
40967;SDS011;57377;45.130;6.038;2022-08-21T05:40:15;4.50;;;1.42;;
40967;SDS011;57377;45.130;6.038;2022-08-21T05:42:41;3.25;;;1.38;;
40967;SDS011;57377;45.130;6.038;2022-08-21T05:45:06;1.67;;;1.30;;
40967;SDS011;57377;45.130;6.038;2022-08-21T05:47:32;3.10;;;1.50;;
40967;SDS011;57377;45.130;6.038;2022-08-21T05:49:57;1.92;;;1.33;;
40967;SDS011;57377;45.130;6.038;2022-08-21T05:52:23;2.13;;;1.55;;
40967;SDS011;57377;45.130;6.038;2022-08-21T05:54:48;1.80;;;1.30;;
40967;SDS011;57377;45.130;6.038;2022-08-21T05:57:15;2.42;;;1.40;;
40967;SDS011;57377;45.130;6.038;2022-08-21T05:59:40;2.50;;;1.70;;
40967;SDS011;57377;45.130;6.038;2022-08-21T06:02:06;3.05;;;1.40;;
40967;SDS011;57377;45.130;6.038;2022-08-21T06:04:39;3.15;;;1.25;;
40967;SDS011;57377;45.130;6.038;2022-08-21T06:07:05;1.80;;;1.45;;
40967;SDS011;57377;45.130;6.038;2022-08-21T06:09:31;2.03;;;1.50;;
40967;SDS011;57377;45.130;6.038;2022-08-21T06:11:58;2.97;;;1.35;;
40967;SDS011;57377;45.130;6.038;2022-08-21T06:14:23;4.05;;;2.08;;
40967;SDS011;57377;45.130;6.038;2022-08-21T06:16:48;2.58;;;1.75;;
40967;SDS011;57377;45.130;6.038;2022-08-21T06:19:14;3.45;;;1.50;;
40967;SDS011;57377;45.130;6.038;2022-08-21T06:21:39;2.05;;;1.45;;
40967;SDS011;57377;45.130;6.038;2022-08-21T06:24:05;3.92;;;1.65;;
40967;SDS011;57377;45.130;6.038;2022-08-21T06:26:32;1.60;;;1.17;;
40967;SDS011;57377;45.130;6.038;2022-08-21T06:28:57;1.58;;;1.38;;
40967;SDS011;57377;45.130;6.038;2022-08-21T06:31:23;3.95;;;1.30;;
40967;SDS011;57377;45.130;6.038;2022-08-21T06:33:51;2.47;;;1.50;;
40967;SDS011;57377;45.130;6.038;2022-08-21T06:36:17;2.75;;;1.55;;
40967;SDS011;57377;45.130;6.038;2022-08-21T06:38:43;1.50;;;1.40;;
40967;SDS011;57377;45.130;6.038;2022-08-21T06:41:08;4.05;;;1.67;;
40967;SDS011;57377;45.130;6.038;2022-08-21T06:43:34;2.30;;;1.58;;
40967;SDS011;57377;45.130;6.038;2022-08-21T06:45:59;2.35;;;1.38;;
40967;SDS011;57377;45.130;6.038;2022-08-21T06:48:25;1.70;;;1.40;;
40967;SDS011;57377;45.130;6.038;2022-08-21T06:50:50;1.48;;;1.33;;
40967;SDS011;57377;45.130;6.038;2022-08-21T06:53:17;1.92;;;1.50;;
40967;SDS011;57377;45.130;6.038;2022-08-21T06:55:44;1.90;;;1.35;;
40967;SDS011;57377;45.130;6.038;2022-08-21T06:58:10;3.47;;;1.15;;
40967;SDS011;57377;45.130;6.038;2022-08-21T07:00:40;4.72;;;1.25;;
40967;SDS011;57377;45.130;6.038;2022-08-21T07:03:15;4.15;;;1.10;;
40967;SDS011;57377;45.130;6.038;2022-08-21T07:05:41;1.45;;;0.82;;
40967;SDS011;57377;45.130;6.038;2022-08-21T07:08:07;5.68;;;1.35;;
40967;SDS011;57377;45.130;6.038;2022-08-21T07:10:32;1.70;;;1.10;;
40967;SDS011;57377;45.130;6.038;2022-08-21T07:12:58;3.17;;;1.00;;
40967;SDS011;57377;45.130;6.038;2022-08-21T07:15:23;3.25;;;0.82;;
40967;SDS011;57377;45.130;6.038;2022-08-21T07:17:48;1.55;;;1.10;;
40967;SDS011;57377;45.130;6.038;2022-08-21T07:20:14;1.52;;;1.05;;
40967;SDS011;57377;45.130;6.038;2022-08-21T07:22:39;1.58;;;1.05;;
40967;SDS011;57377;45.130;6.038;2022-08-21T07:25:06;1.00;;;0.80;;
40967;SDS011;57377;45.130;6.038;2022-08-21T07:27:32;1.00;;;0.90;;
40967;SDS011;57377;45.130;6.038;2022-08-21T07:29:58;1.10;;;0.80;;
40967;SDS011;57377;45.130;6.038;2022-08-21T07:32:24;2.47;;;0.77;;
40967;SDS011;57377;45.130;6.038;2022-08-21T07:34:50;1.08;;;0.70;;
40967;SDS011;57377;45.130;6.038;2022-08-21T07:37:15;0.85;;;0.70;;
40967;SDS011;57377;45.130;6.038;2022-08-21T07:39:41;1.50;;;0.75;;
40967;SDS011;57377;45.130;6.038;2022-08-21T07:42:06;1.10;;;0.70;;
40967;SDS011;57377;45.130;6.038;2022-08-21T07:44:33;4.63;;;1.47;;
40967;SDS011;57377;45.130;6.038;2022-08-21T07:46:59;2.05;;;0.85;;
40967;SDS011;57377;45.130;6.038;2022-08-21T07:49:26;0.93;;;0.80;;
40967;SDS011;57377;45.130;6.038;2022-08-21T07:51:52;0.65;;;0.60;;
40967;SDS011;57377;45.130;6.038;2022-08-21T07:54:17;1.63;;;0.88;;
40967;SDS011;57377;45.130;6.038;2022-08-21T07:56:45;1.27;;;0.95;;
40967;SDS011;57377;45.130;6.038;2022-08-21T07:59:15;0.98;;;0.73;;
40967;SDS011;57377;45.130;6.038;2022-08-21T08:01:41;4.57;;;1.35;;
40967;SDS011;57377;45.130;6.038;2022-08-21T08:04:06;1.30;;;0.88;;
40967;SDS011;57377;45.130;6.038;2022-08-21T08:06:32;3.15;;;1.02;;
40967;SDS011;57377;45.130;6.038;2022-08-21T08:08:57;1.30;;;1.10;;
40967;SDS011;57377;45.130;6.038;2022-08-21T08:11:23;2.08;;;1.30;;
40967;SDS011;57377;45.130;6.038;2022-08-21T08:13:49;1.95;;;1.00;;
40967;SDS011;57377;45.130;6.038;2022-08-21T08:16:16;1.63;;;1.10;;
40967;SDS011;57377;45.130;6.038;2022-08-21T08:18:42;1.53;;;1.20;;
40967;SDS011;57377;45.130;6.038;2022-08-21T08:21:09;1.88;;;1.20;;
40967;SDS011;57377;45.130;6.038;2022-08-21T08:23:36;4.40;;;1.30;;
40967;SDS011;57377;45.130;6.038;2022-08-21T08:26:05;2.38;;;1.40;;
40967;SDS011;57377;45.130;6.038;2022-08-21T08:28:31;1.38;;;1.25;;
40967;SDS011;57377;45.130;6.038;2022-08-21T08:30:57;1.75;;;1.30;;
40967;SDS011;57377;45.130;6.038;2022-08-21T08:33:23;2.17;;;1.40;;
40967;SDS011;57377;45.130;6.038;2022-08-21T08:35:50;2.35;;;1.60;;
40967;SDS011;57377;45.130;6.038;2022-08-21T08:38:17;3.80;;;1.88;;
40967;SDS011;57377;45.130;6.038;2022-08-21T08:40:50;5.20;;;1.95;;
40967;SDS011;57377;45.130;6.038;2022-08-21T08:43:32;4.95;;;1.58;;
40967;SDS011;57377;45.130;6.038;2022-08-21T08:45:59;1.90;;;1.63;;
40967;SDS011;57377;45.130;6.038;2022-08-21T08:51:13;3.50;;;1.77;;
40967;SDS011;57377;45.130;6.038;2022-08-21T08:53:54;1.73;;;1.50;;
40967;SDS011;57377;45.130;6.038;2022-08-21T08:56:27;2.20;;;1.50;;
40967;SDS011;57377;45.130;6.038;2022-08-21T08:58:58;2.95;;;2.22;;
40967;SDS011;57377;45.130;6.038;2022-08-21T09:01:38;2.22;;;1.85;;
40967;SDS011;57377;45.130;6.038;2022-08-21T09:04:04;1.92;;;1.70;;
40967;SDS011;57377;45.130;6.038;2022-08-21T09:06:44;2.20;;;1.70;;
40967;SDS011;57377;45.130;6.038;2022-08-21T09:15:01;3.15;;;1.90;;
40967;SDS011;57377;45.130;6.038;2022-08-21T09:20:48;2.70;;;1.67;;
40967;SDS011;57377;45.130;6.038;2022-08-21T09:23:28;3.33;;;2.22;;
40967;SDS011;57377;45.130;6.038;2022-08-21T09:26:04;2.42;;;1.75;;
40967;SDS011;57377;45.130;6.038;2022-08-21T09:28:39;3.45;;;1.55;;
40967;SDS011;57377;45.130;6.038;2022-08-21T09:34:04;2.17;;;1.83;;
40967;SDS011;57377;45.130;6.038;2022-08-21T09:36:37;2.50;;;1.40;;
40967;SDS011;57377;45.130;6.038;2022-08-21T09:39:22;2.53;;;1.60;;
40967;SDS011;57377;45.130;6.038;2022-08-21T09:42:29;1.98;;;1.70;;
40967;SDS011;57377;45.130;6.038;2022-08-21T09:45:13;5.20;;;1.50;;
40967;SDS011;57377;45.130;6.038;2022-08-21T09:47:46;2.58;;;1.80;;
40967;SDS011;57377;45.130;6.038;2022-08-21T09:50:15;4.03;;;1.45;;
40967;SDS011;57377;45.130;6.038;2022-08-21T09:52:58;10.88;;;1.90;;
40967;SDS011;57377;45.130;6.038;2022-08-21T09:55:39;7.28;;;1.92;;
40967;SDS011;57377;45.130;6.038;2022-08-21T09:58:38;2.10;;;1.58;;
40967;SDS011;57377;45.130;6.038;2022-08-21T10:01:17;3.17;;;1.30;;
40967;SDS011;57377;45.130;6.038;2022-08-21T10:06:37;3.67;;;1.60;;
40967;SDS011;57377;45.130;6.038;2022-08-21T10:09:10;1.88;;;1.60;;
40967;SDS011;57377;45.130;6.038;2022-08-21T10:11:46;2.92;;;1.38;;
40967;SDS011;57377;45.130;6.038;2022-08-21T10:20:20;2.28;;;1.75;;
40967;SDS011;57377;45.130;6.038;2022-08-21T10:29:18;2.33;;;1.80;;
40967;SDS011;57377;45.130;6.038;2022-08-21T10:34:48;1.70;;;1.40;;
40967;SDS011;57377;45.130;6.038;2022-08-21T10:40:36;3.10;;;1.60;;
40967;SDS011;57377;45.130;6.038;2022-08-21T10:46:35;1.73;;;1.60;;
40967;SDS011;57377;45.130;6.038;2022-08-21T10:55:19;1.88;;;1.50;;
40967;SDS011;57377;45.130;6.038;2022-08-21T10:58:30;2.65;;;1.60;;
40967;SDS011;57377;45.130;6.038;2022-08-21T11:00:51;1.67;;;1.40;;
40967;SDS011;57377;45.130;6.038;2022-08-21T11:03:27;1.50;;;1.38;;
40967;SDS011;57377;45.130;6.038;2022-08-21T11:05:59;1.97;;;1.40;;
40967;SDS011;57377;45.130;6.038;2022-08-21T11:08:41;1.55;;;1.30;;
40967;SDS011;57377;45.130;6.038;2022-08-21T11:16:31;3.92;;;1.33;;
40967;SDS011;57377;45.130;6.038;2022-08-21T11:21:42;2.50;;;1.50;;
40967;SDS011;57377;45.130;6.038;2022-08-21T11:29:30;3.30;;;1.27;;
40967;SDS011;57377;45.130;6.038;2022-08-21T11:43:33;5.22;;;1.48;;
40967;SDS011;57377;45.130;6.038;2022-08-21T12:00:00;2.40;;;1.20;;
40967;SDS011;57377;45.130;6.038;2022-08-21T12:02:41;2.17;;;1.35;;
40967;SDS011;57377;45.130;6.038;2022-08-21T12:05:29;1.33;;;1.10;;
40967;SDS011;57377;45.130;6.038;2022-08-21T12:08:03;1.15;;;1.00;;
40967;SDS011;57377;45.130;6.038;2022-08-21T12:11:02;3.97;;;1.33;;
40967;SDS011;57377;45.130;6.038;2022-08-21T12:16:41;1.23;;;1.10;;
40967;SDS011;57377;45.130;6.038;2022-08-21T12:24:20;1.42;;;1.02;;
40967;SDS011;57377;45.130;6.038;2022-08-21T12:29:56;1.35;;;1.13;;
40967;SDS011;57377;45.130;6.038;2022-08-21T12:35:20;2.00;;;1.15;;
40967;SDS011;57377;45.130;6.038;2022-08-21T12:37:51;1.67;;;1.17;;
40967;SDS011;57377;45.130;6.038;2022-08-21T12:46:34;1.55;;;1.10;;
40967;SDS011;57377;45.130;6.038;2022-08-21T12:49:14;1.30;;;1.20;;
40967;SDS011;57377;45.130;6.038;2022-08-21T12:52:16;7.32;;;1.20;;
40967;SDS011;57377;45.130;6.038;2022-08-21T12:55:14;1.77;;;1.25;;
40967;SDS011;57377;45.130;6.038;2022-08-21T12:57:48;0.80;;;0.80;;
40967;SDS011;57377;45.130;6.038;2022-08-21T13:00:23;1.83;;;1.08;;
40967;SDS011;57377;45.130;6.038;2022-08-21T13:02:50;1.17;;;0.95;;
40967;SDS011;57377;45.130;6.038;2022-08-21T13:05:35;1.35;;;0.95;;
40967;SDS011;57377;45.130;6.038;2022-08-21T13:08:48;1.33;;;0.90;;
40967;SDS011;57377;45.130;6.038;2022-08-21T13:12:11;3.03;;;0.85;;
40967;SDS011;57377;45.130;6.038;2022-08-21T13:14:40;1.25;;;0.85;;
40967;SDS011;57377;45.130;6.038;2022-08-21T13:17:09;1.27;;;0.95;;
40967;SDS011;57377;45.130;6.038;2022-08-21T13:20:40;1.00;;;0.90;;
40967;SDS011;57377;45.130;6.038;2022-08-21T13:23:07;1.00;;;0.90;;
40967;SDS011;57377;45.130;6.038;2022-08-21T13:25:44;1.92;;;0.90;;
40967;SDS011;57377;45.130;6.038;2022-08-21T13:28:14;1.92;;;0.90;;
40967;SDS011;57377;45.130;6.038;2022-08-21T13:31:05;1.02;;;0.75;;
40967;SDS011;57377;45.130;6.038;2022-08-21T13:33:33;1.02;;;0.77;;
40967;SDS011;57377;45.130;6.038;2022-08-21T13:38:25;1.52;;;0.80;;
40967;SDS011;57377;45.130;6.038;2022-08-21T13:41:04;3.13;;;1.20;;
40967;SDS011;57377;45.130;6.038;2022-08-21T13:43:44;0.73;;;0.73;;
40967;SDS011;57377;45.130;6.038;2022-08-21T13:46:14;1.27;;;0.83;;
40967;SDS011;57377;45.130;6.038;2022-08-21T13:48:42;2.03;;;1.10;;
40967;SDS011;57377;45.130;6.038;2022-08-21T13:51:08;0.60;;;0.60;;
40967;SDS011;57377;45.130;6.038;2022-08-21T13:56:29;1.33;;;1.10;;
40967;SDS011;57377;45.130;6.038;2022-08-21T13:59:08;2.58;;;0.80;;
40967;SDS011;57377;45.130;6.038;2022-08-21T14:01:37;1.67;;;0.90;;
40967;SDS011;57377;45.130;6.038;2022-08-21T14:04:33;0.90;;;0.80;;
40967;SDS011;57377;45.130;6.038;2022-08-21T14:07:01;0.90;;;0.80;;
40967;SDS011;57377;45.130;6.038;2022-08-21T14:09:40;2.60;;;0.90;;
40967;SDS011;57377;45.130;6.038;2022-08-21T14:12:50;1.10;;;0.70;;
40967;SDS011;57377;45.130;6.038;2022-08-21T14:15:23;2.90;;;0.80;;
40967;SDS011;57377;45.130;6.038;2022-08-21T14:17:53;4.28;;;0.93;;
40967;SDS011;57377;45.130;6.038;2022-08-21T14:20:32;4.65;;;0.82;;
40967;SDS011;57377;45.130;6.038;2022-08-21T14:22:59;2.60;;;0.68;;
40967;SDS011;57377;45.130;6.038;2022-08-21T14:27:55;2.17;;;0.70;;
40967;SDS011;57377;45.130;6.038;2022-08-21T14:30:28;1.48;;;0.80;;
40967;SDS011;57377;45.130;6.038;2022-08-21T14:32:59;1.98;;;1.25;;
40967;SDS011;57377;45.130;6.038;2022-08-21T14:35:25;2.50;;;1.33;;
40967;SDS011;57377;45.130;6.038;2022-08-21T14:37:51;2.28;;;0.88;;
40967;SDS011;57377;45.130;6.038;2022-08-21T14:42:44;1.73;;;0.95;;
40967;SDS011;57377;45.130;6.038;2022-08-21T14:45:13;1.17;;;0.93;;
40967;SDS011;57377;45.130;6.038;2022-08-21T14:47:43;4.68;;;1.10;;
40967;SDS011;57377;45.130;6.038;2022-08-21T14:50:10;1.42;;;0.90;;
40967;SDS011;57377;45.130;6.038;2022-08-21T14:52:37;1.75;;;0.88;;
40967;SDS011;57377;45.130;6.038;2022-08-21T14:55:04;2.00;;;1.00;;
40967;SDS011;57377;45.130;6.038;2022-08-21T14:57:33;1.77;;;0.80;;
40967;SDS011;57377;45.130;6.038;2022-08-21T14:59:59;2.10;;;1.10;;
40967;SDS011;57377;45.130;6.038;2022-08-21T15:02:25;2.28;;;1.33;;
40967;SDS011;57377;45.130;6.038;2022-08-21T15:04:51;1.48;;;0.68;;
40967;SDS011;57377;45.130;6.038;2022-08-21T15:07:16;1.10;;;0.82;;
40967;SDS011;57377;45.130;6.038;2022-08-21T15:09:42;2.30;;;0.90;;
40967;SDS011;57377;45.130;6.038;2022-08-21T15:12:07;1.20;;;0.60;;
40967;SDS011;57377;45.130;6.038;2022-08-21T15:14:35;1.50;;;0.98;;
40967;SDS011;57377;45.130;6.038;2022-08-21T15:17:05;4.15;;;0.98;;
40967;SDS011;57377;45.130;6.038;2022-08-21T15:21:58;4.05;;;0.57;;
40967;SDS011;57377;45.130;6.038;2022-08-21T15:26:51;0.80;;;0.60;;
40967;SDS011;57377;45.130;6.038;2022-08-21T15:29:17;1.90;;;0.70;;
40967;SDS011;57377;45.130;6.038;2022-08-21T15:31:50;0.80;;;0.63;;
40967;SDS011;57377;45.130;6.038;2022-08-21T15:34:16;3.25;;;0.90;;
40967;SDS011;57377;45.130;6.038;2022-08-21T15:36:42;1.20;;;0.50;;
40967;SDS011;57377;45.130;6.038;2022-08-21T15:39:07;1.90;;;0.65;;
40967;SDS011;57377;45.130;6.038;2022-08-21T15:41:35;0.75;;;0.70;;
40967;SDS011;57377;45.130;6.038;2022-08-21T15:44:01;0.85;;;0.70;;
40967;SDS011;57377;45.130;6.038;2022-08-21T15:46:32;2.17;;;0.88;;
40967;SDS011;57377;45.130;6.038;2022-08-21T15:48:57;0.95;;;0.60;;
40967;SDS011;57377;45.130;6.038;2022-08-21T15:51:23;0.85;;;0.50;;
40967;SDS011;57377;45.130;6.038;2022-08-21T15:53:48;1.05;;;0.73;;
40967;SDS011;57377;45.130;6.038;2022-08-21T15:56:21;2.67;;;0.90;;
40967;SDS011;57377;45.130;6.038;2022-08-21T15:58:50;0.88;;;0.63;;
40967;SDS011;57377;45.130;6.038;2022-08-21T16:01:19;0.73;;;0.65;;
40967;SDS011;57377;45.130;6.038;2022-08-21T16:04:04;1.25;;;0.70;;
40967;SDS011;57377;45.130;6.038;2022-08-21T16:06:31;1.98;;;0.65;;
40967;SDS011;57377;45.130;6.038;2022-08-21T16:08:59;0.50;;;0.43;;
40967;SDS011;57377;45.130;6.038;2022-08-21T16:11:28;0.77;;;0.70;;
40967;SDS011;57377;45.130;6.038;2022-08-21T16:13:56;1.80;;;0.90;;
40967;SDS011;57377;45.130;6.038;2022-08-21T16:16:23;2.20;;;0.80;;
40967;SDS011;57377;45.130;6.038;2022-08-21T16:18:53;1.60;;;0.90;;
40967;SDS011;57377;45.130;6.038;2022-08-21T16:21:19;1.23;;;0.82;;
40967;SDS011;57377;45.130;6.038;2022-08-21T16:23:44;2.25;;;0.90;;
40967;SDS011;57377;45.130;6.038;2022-08-21T16:26:15;0.95;;;0.70;;
40967;SDS011;57377;45.130;6.038;2022-08-21T16:28:42;1.65;;;0.82;;
40967;SDS011;57377;45.130;6.038;2022-08-21T16:31:10;0.90;;;0.65;;
40967;SDS011;57377;45.130;6.038;2022-08-21T16:33:37;1.27;;;0.70;;
40967;SDS011;57377;45.130;6.038;2022-08-21T16:36:05;1.42;;;0.75;;
40967;SDS011;57377;45.130;6.038;2022-08-21T16:38:33;4.63;;;1.17;;
40967;SDS011;57377;45.130;6.038;2022-08-21T16:41:02;1.02;;;0.82;;
40967;SDS011;57377;45.130;6.038;2022-08-21T16:43:30;1.73;;;0.75;;
40967;SDS011;57377;45.130;6.038;2022-08-21T16:45:56;1.92;;;0.52;;
40967;SDS011;57377;45.130;6.038;2022-08-21T16:48:31;4.63;;;1.05;;
40967;SDS011;57377;45.130;6.038;2022-08-21T16:54:53;2.47;;;0.70;;
40967;SDS011;57377;45.130;6.038;2022-08-21T17:04:58;3.25;;;0.90;;
40967;SDS011;57377;45.130;6.038;2022-08-21T17:07:39;4.55;;;0.77;;
40967;SDS011;57377;45.130;6.038;2022-08-21T17:10:46;9.10;;;1.10;;
40967;SDS011;57377;45.130;6.038;2022-08-21T17:17:15;2.72;;;0.93;;
40967;SDS011;57377;45.130;6.038;2022-08-21T17:23:53;3.42;;;0.80;;
40967;SDS011;57377;45.130;6.038;2022-08-21T17:26:42;2.17;;;0.90;;